Detall de PIREP

Printer-friendly versionPDF version

[2014/04/25 15:28:00]
Flight IATA:CT2208
Pilot Number:044
Company ICAO:CAT
Aircraft Type:F100/A
PAX:100
Aircraft Registration:PFJ
Departing Airport: LFMP
Destination Airport: LFQQ
Alternate Airport:LFPG
Online: VATSIM
Route:ORBIL/N280F180 G36 GAI/N300F300 UT186 PERIG UY156 ADABI UN858 VANAD UN874 CMB
Flight Level:F300
No Slew and time accel
No pause
Crash detect
Detect pilot in Cockpit between each 30 and 45 minutes
15:28 Zero fuel Weight: 80556 Lbs, Fuel Weight: 14620 Lbs
15:28 VATSIM:LFMP 251500Z 32018G33KT 9999 SCT048 BKN250 18/06 Q1014
15:28 VATSIM:LFQQ 251500Z 19012KT 9999 FEW031 BKN061 17/11 Q1009 TEMPO 3000 TSRA BKN030CB
15:30 Parking Brakes off
15:39 Take-off
15:39 Take off Weight: 94688 Lbs
15:39 Wind: 322º @ 018 Knots Heading: 325º
15:39 POS N42º 44´ 49´´ E002º 52´ 02´´
15:39 Flaps:2 at 169 Knots
15:39 Flaps:1 at 171 Knots
15:39 Gear Up: 187 Knots
15:39 Flaps:0 at 181 Knots
15:54 Wind:352º@042 Knots Heading: 342º Ground Speed: 359 Knots Altitude 24708 ft
15:57 TOC
15:57 Fuel Weight: 11872 Lb
16:09 Wind:268º@031 Knots Heading: 327º Ground Speed: 416 Knots Altitude 30108 ft
16:24 Wind:261º@044 Knots Heading: 006º Ground Speed: 456 Knots Altitude 30045 ft
16:39 Wind:265º@036 Knots Heading: 014º Ground Speed: 454 Knots Altitude 29990 ft
16:44 TOD
16:44 Fuel Weight: 7969 Lb
16:54 Wind:239º@038 Knots Heading: 031º Ground Speed: 354 Knots Altitude 11945 ft
17:07 Flaps:1 at 182 Knots
17:09 Wind:195º@012 Knots Heading: 113º Ground Speed: 187 Knots Altitude 2004 ft
17:09 Flaps:2 at 182 Knots
17:12 Flaps:3 at 170 Knots
17:14 Gear Down: 145 Knots
17:14 Flaps:4 at 136 Knots
17:16 TouchDown:Rate -258 ft/min Speed: 117 Knots
17:16 VATSIM:LFQQ 251700Z 21012KT 7000 SCT011 BKN018 15/13 Q1010 NOSIG
17:16 Land
17:16 Wind:213º@012 Knots
17:16 Heading: 260º
17:16 Flight Duration: 01:37
17:16 Landing Weight: 86884 Lbs
17:16 POS N50º 33´ 51´´ E003º 05´ 38´´
17:20 Parking brakes on
17:20 Block to Block Duration: 01:50
17:20 Final Fuel: 6170 Lbls
17:20 Spent Fuel: 8450 Lbls
17:20 Flight Length: 572 NM
17:20 TOD Land Length: 147 NM

Exportar CSV

Powered by Drupal - Modified by Danger4k